Time;durP1;ratioP1;P1;durP2;ratioP2;P2;SDS_P1;SDS_P2;PMS_P1;PMS_P2;Temp;Humidity;BMP_temperature;BMP_pressure;BME280_temperature;BME280_humidity;BME280_pressure;Samples;Min_cycle;Max_cycle;Signal;HPM_P1;HPM_P2
2021/07/10 00:01:12;;;;;;;;;;;25.60;99.90;;;;;;1895429;74;20505;-92
2021/07/10 00:03:42;;;;;;;;;;;25.60;99.90;;;;;;1893375;76;20242;-91
2021/07/10 00:06:15;;;;;;;;;;;25.60;99.90;;;;;;1887674;76;20553;-93
2021/07/10 00:08:45;;;;;;;;;;;25.70;99.90;;;;;;1885687;76;20220;-91
2021/07/10 00:11:17;;;;;;;;;;;25.70;99.90;;;;;;1883863;74;20177;-93
2021/07/10 00:13:47;;;;;;;;;;;25.70;99.90;;;;;;1892402;76;20219;-92
2021/07/10 00:16:17;;;;;;;;;;;25.80;99.90;;;;;;1890315;76;20116;-94
2021/07/10 00:18:46;;;;;;;;;;;25.80;99.90;;;;;;1883576;76;20210;-93
2021/07/10 00:21:16;;;;;;;;;;;25.80;99.90;;;;;;1896254;76;20581;-91
2021/07/10 00:23:46;;;;;;;;;;;25.80;99.90;;;;;;1889554;76;20306;-93
2021/07/10 00:26:17;;;;;;;;;;;25.80;99.90;;;;;;1888990;76;20183;-92
2021/07/10 00:28:51;;;;;;;;;;;25.80;99.90;;;;;;1860736;76;20212;-92
2021/07/10 00:31:19;;;;;;;;;;;25.80;99.90;;;;;;1893540;74;20202;-93
2021/07/10 00:33:50;;;;;;;;;;;25.90;99.90;;;;;;1894804;76;20282;-92
2021/07/10 00:36:20;;;;;;;;;;;25.80;99.90;;;;;;1885480;76;20173;-92
2021/07/10 00:38:50;;;;;;;;;;;25.90;99.90;;;;;;1895399;76;20163;-94
2021/07/10 00:41:20;;;;;;;;;;;25.90;99.90;;;;;;1894041;74;20183;-92
2021/07/10 00:43:51;;;;;;;;;;;26.00;99.90;;;;;;1896256;74;20259;-93
2021/07/10 00:46:21;;;;;;;;;;;26.00;99.90;;;;;;1895836;74;20203;-92
2021/07/10 00:48:52;;;;;;;;;;;26.10;99.90;;;;;;1890674;75;20195;-90
2021/07/10 00:51:27;;;;;;;;;;;26.10;99.90;;;;;;1869844;75;20128;-89
2021/07/10 00:53:54;;;;;;;;;;;26.10;99.90;;;;;;1886289;74;20140;-87
2021/07/10 00:56:23;;;;;;;;;;;26.10;99.90;;;;;;1875638;76;20209;-91
2021/07/10 00:58:54;;;;;;;;;;;26.10;99.90;;;;;;1873632;76;20274;-92
2021/07/10 01:01:28;;;;;;;;;;;26.10;99.90;;;;;;1885521;75;20163;-91
2021/07/10 01:03:59;;;;;;;;;;;26.10;99.90;;;;;;1867707;75;20753;-87
2021/07/10 01:06:28;;;;;;;;;;;26.20;99.90;;;;;;1880087;75;20285;-91
2021/07/10 01:08:58;;;;;;;;;;;26.10;99.90;;;;;;1882679;76;20171;-92
2021/07/10 01:11:29;;;;;;;;;;;26.20;99.90;;;;;;1888645;75;20246;-91
2021/07/10 01:13:58;;;;;;;;;;;26.20;99.90;;;;;;1883327;75;20295;-93
2021/07/10 01:16:28;;;;;;;;;;;26.20;99.90;;;;;;1880591;76;20641;-90
2021/07/10 01:18:58;;;;;;;;;;;26.30;99.90;;;;;;1873102;75;20240;-91
2021/07/10 01:21:28;;;;;;;;;;;26.40;99.90;;;;;;1877499;76;20210;-89
2021/07/10 01:23:58;;;;;;;;;;;26.40;99.90;;;;;;1881216;76;20299;-92
2021/07/10 01:26:28;;;;;;;;;;;26.40;99.90;;;;;;1882431;74;20262;-92
2021/07/10 01:28:57;;;;;;;;;;;26.40;99.90;;;;;;1892288;76;20203;-89
2021/07/10 01:31:31;;;;;;;;;;;26.40;99.90;;;;;;1888286;76;20132;-87
2021/07/10 01:34:02;;;;;;;;;;;26.40;99.90;;;;;;1878837;76;20565;-87
2021/07/10 01:36:35;;;;;;;;;;;26.50;99.90;;;;;;1889093;76;20238;-89
2021/07/10 01:39:06;;;;;;;;;;;26.50;99.90;;;;;;1891465;76;20231;-88
2021/07/10 01:41:37;;;;;;;;;;;26.50;99.90;;;;;;1874550;76;20216;-88
2021/07/10 01:44:07;;;;;;;;;;;26.60;99.90;;;;;;1885843;76;20173;-87
2021/07/10 01:46:36;;;;;;;;;;;26.50;99.90;;;;;;1881622;76;20169;-86
2021/07/10 01:49:06;;;;;;;;;;;26.60;99.90;;;;;;1884626;76;20191;-86
2021/07/10 01:51:36;;;;;;;;;;;26.60;99.90;;;;;;1886225;75;20116;-86
2021/07/10 01:54:06;;;;;;;;;;;26.60;99.90;;;;;;1884799;75;20247;-86
2021/07/10 01:56:35;;;;;;;;;;;26.60;99.90;;;;;;1884195;74;20734;-85
2021/07/10 01:59:05;;;;;;;;;;;26.60;99.90;;;;;;1890463;75;20498;-85
2021/07/10 02:01:35;;;;;;;;;;;26.60;99.90;;;;;;1888253;74;20211;-86
2021/07/10 02:04:08;;;;;;;;;;;26.60;99.90;;;;;;1889895;75;20227;-79
2021/07/10 02:06:35;;;;;;;;;;;26.60;99.90;;;;;;1886144;76;20261;-81
2021/07/10 02:09:06;;;;;;;;;;;26.60;99.90;;;;;;1890344;76;20534;-78
2021/07/10 02:11:36;;;;;;;;;;;26.60;99.90;;;;;;1855132;76;20146;-80
2021/07/10 02:14:06;;;;;;;;;;;26.60;99.90;;;;;;1889376;76;20479;-79
2021/07/10 02:16:36;;;;;;;;;;;26.60;99.90;;;;;;1884273;76;20149;-79
2021/07/10 02:19:06;;;;;;;;;;;26.60;99.90;;;;;;1889247;76;20234;-79
2021/07/10 02:21:35;;;;;;;;;;;26.70;99.90;;;;;;1889759;74;20175;-80
2021/07/10 02:24:06;;;;;;;;;;;26.80;99.90;;;;;;1882340;74;20209;-79
2021/07/10 02:26:37;;;;;;;;;;;26.90;99.90;;;;;;1891086;75;20530;-79
2021/07/10 02:29:07;;;;;;;;;;;27.00;99.90;;;;;;1891092;76;20233;-80
2021/07/10 02:31:37;;;;;;;;;;;27.10;99.90;;;;;;1891154;76;20556;-80
2021/07/10 02:34:06;;;;;;;;;;;27.30;99.90;;;;;;1890585;74;20299;-79
2021/07/10 02:36:36;;;;;;;;;;;27.40;99.90;;;;;;1890815;76;20195;-79
2021/07/10 02:39:06;;;;;;;;;;;27.50;99.90;;;;;;1889055;76;20187;-79
2021/07/10 02:41:37;;;;;;;;;;;27.60;99.90;;;;;;1890466;76;20201;-78
2021/07/10 02:44:06;;;;;;;;;;;27.60;99.90;;;;;;1887849;76;20419;-79
2021/07/10 02:46:36;;;;;;;;;;;27.60;99.90;;;;;;1887433;76;20183;-79
2021/07/10 02:49:06;;;;;;;;;;;27.60;99.90;;;;;;1887676;76;20207;-79
2021/07/10 02:51:38;;;;;;;;;;;27.60;99.90;;;;;;1889016;74;20191;-80
2021/07/10 02:54:07;;;;;;;;;;;27.60;99.90;;;;;;1880590;76;20196;-79
2021/07/10 02:56:37;;;;;;;;;;;27.60;99.90;;;;;;1885278;76;20242;-79
2021/07/10 02:59:06;;;;;;;;;;;27.60;99.90;;;;;;1888432;76;20199;-79
2021/07/10 03:01:36;;;;;;;;;;;27.60;99.90;;;;;;1887433;76;20466;-79
2021/07/10 03:04:06;;;;;;;;;;;27.70;99.90;;;;;;1887365;76;20264;-79
2021/07/10 03:06:36;;;;;;;;;;;27.70;99.90;;;;;;1883310;76;20215;-79
2021/07/10 03:09:05;;;;;;;;;;;27.80;99.90;;;;;;1891346;75;20175;-79
2021/07/10 03:11:37;;;;;;;;;;;27.80;99.90;;;;;;1888287;76;20241;-79
2021/07/10 03:14:06;;;;;;;;;;;27.80;99.90;;;;;;1886805;76;20215;-79
2021/07/10 03:16:37;;;;;;;;;;;28.00;99.90;;;;;;1886953;76;20403;-80
2021/07/10 03:19:07;;;;;;;;;;;28.10;99.20;;;;;;1891480;76;20466;-78
2021/07/10 03:21:39;;;;;;;;;;;28.30;99.20;;;;;;1889022;74;20547;-79
2021/07/10 03:24:09;;;;;;;;;;;28.30;99.00;;;;;;1891123;74;20261;-80
2021/07/10 03:26:39;;;;;;;;;;;28.40;98.70;;;;;;1875068;76;20178;-80
2021/07/10 03:29:15;;;;;;;;;;;28.40;98.90;;;;;;1889723;76;20159;-79
2021/07/10 03:31:45;;;;;;;;;;;28.50;98.40;;;;;;1859493;76;20159;-79
2021/07/10 03:34:15;;;;;;;;;;;28.70;98.50;;;;;;1890016;75;20175;-79
2021/07/10 03:36:47;;;;;;;;;;;28.80;98.00;;;;;;1889456;76;20172;-79
2021/07/10 03:39:22;;;;;;;;;;;28.90;98.00;;;;;;1889203;76;20538;-79
2021/07/10 03:41:52;;;;;;;;;;;29.00;98.20;;;;;;1890421;76;20183;-78
2021/07/10 03:44:47;;;;;;;;;;;29.00;97.40;;;;;;1888087;76;20192;-80
2021/07/10 03:47:21;;;;;;;;;;;29.20;97.20;;;;;;1889059;76;20292;-79
2021/07/10 03:49:53;;;;;;;;;;;29.20;97.30;;;;;;1889978;76;20171;-79
2021/07/10 03:52:29;;;;;;;;;;;29.10;97.30;;;;;;1887610;74;20198;-78
2021/07/10 03:55:06;;;;;;;;;;;29.10;97.30;;;;;;1859255;74;20198;-79
2021/07/10 03:57:39;;;;;;;;;;;29.00;96.70;;;;;;1891973;76;20238;-78
2021/07/10 04:00:11;;;;;;;;;;;29.00;97.20;;;;;;1893493;76;20210;-77
2021/07/10 04:02:40;;;;;;;;;;;29.10;97.00;;;;;;1860606;74;20178;-77
2021/07/10 04:05:11;;;;;;;;;;;29.10;96.80;;;;;;1896409;74;20211;-78
2021/07/10 04:07:41;;;;;;;;;;;29.10;97.10;;;;;;1895118;76;20218;-78
2021/07/10 04:10:14;;;;;;;;;;;29.10;97.00;;;;;;1894960;76;20221;-79
2021/07/10 04:12:46;;;;;;;;;;;29.10;97.40;;;;;;1894325;76;20206;-79
2021/07/10 04:15:19;;;;;;;;;;;29.00;97.30;;;;;;1888230;76;20167;-79
2021/07/10 04:17:51;;;;;;;;;;;29.00;97.20;;;;;;1891368;76;20211;-79
2021/07/10 04:20:21;;;;;;;;;;;29.00;97.10;;;;;;1894811;76;20423;-79
2021/07/10 04:22:50;;;;;;;;;;;28.90;97.30;;;;;;1894834;76;20210;-78
2021/07/10 04:25:21;;;;;;;;;;;28.80;97.60;;;;;;1894695;76;20226;-79
2021/07/10 04:27:50;;;;;;;;;;;28.80;97.80;;;;;;1890011;76;20250;-79
2021/07/10 04:30:22;;;;;;;;;;;28.70;97.40;;;;;;1893737;76;20657;-79
2021/07/10 04:32:52;;;;;;;;;;;28.80;97.40;;;;;;1894818;76;20580;-79
2021/07/10 04:35:31;;;;;;;;;;;29.00;97.20;;;;;;1895447;74;20183;-79
2021/07/10 04:38:01;;;;;;;;;;;29.20;96.90;;;;;;1893903;76;20297;-79
2021/07/10 04:40:32;;;;;;;;;;;29.40;96.40;;;;;;1893293;76;20156;-78
2021/07/10 04:43:01;;;;;;;;;;;29.60;95.60;;;;;;1892047;76;20893;-79
2021/07/10 04:45:31;;;;;;;;;;;29.80;95.10;;;;;;1890474;74;20259;-81
2021/07/10 04:48:03;;;;;;;;;;;29.90;94.20;;;;;;1888563;76;20182;-80
2021/07/10 04:50:32;;;;;;;;;;;30.00;94.30;;;;;;1894670;76;20180;-80
2021/07/10 04:53:03;;;;;;;;;;;30.20;93.80;;;;;;1892302;74;20229;-79
2021/07/10 04:55:33;;;;;;;;;;;30.30;93.80;;;;;;1895229;76;20415;-80
2021/07/10 04:58:07;;;;;;;;;;;30.30;93.40;;;;;;1831324;78;20152;-80
2021/07/10 05:00:36;;;;;;;;;;;30.30;93.50;;;;;;1888699;76;20222;-81
2021/07/10 05:03:06;;;;;;;;;;;30.30;93.20;;;;;;1887589;76;20245;-79
2021/07/10 05:05:37;;;;;;;;;;;30.30;93.20;;;;;;1883395;76;20240;-80
2021/07/10 05:08:07;;;;;;;;;;;30.30;92.90;;;;;;1891580;74;20451;-78
2021/07/10 05:10:37;;;;;;;;;;;30.40;92.30;;;;;;1892158;74;20246;-79
2021/07/10 05:13:09;;;;;;;;;;;30.30;92.60;;;;;;1889964;74;20219;-79
2021/07/10 05:15:39;;;;;;;;;;;30.30;92.70;;;;;;1894655;76;20505;-78
2021/07/10 05:18:09;;;;;;;;;;;30.40;92.30;;;;;;1895018;76;20127;-79
2021/07/10 05:20:38;;;;;;;;;;;30.50;92.10;;;;;;1885731;76;20159;-79
2021/07/10 05:23:10;;;;;;;;;;;30.50;91.90;;;;;;1892532;76;20237;-79
2021/07/10 05:25:39;;;;;;;;;;;30.50;91.60;;;;;;1883229;76;20161;-79
2021/07/10 05:28:09;;;;;;;;;;;30.60;91.30;;;;;;1885286;76;20203;-79
2021/07/10 05:30:38;;;;;;;;;;;30.60;91.30;;;;;;1878822;76;20232;-79
2021/07/10 05:33:08;;;;;;;;;;;30.60;91.50;;;;;;1885998;76;20201;-79
2021/07/10 05:35:38;;;;;;;;;;;30.60;91.90;;;;;;1879112;74;20242;-79
2021/07/10 05:38:08;;;;;;;;;;;30.60;92.00;;;;;;1884643;74;20561;-78
2021/07/10 05:40:38;;;;;;;;;;;30.60;91.70;;;;;;1887663;75;20163;-77
2021/07/10 05:43:08;;;;;;;;;;;30.70;91.60;;;;;;1890579;74;20183;-79
2021/07/10 05:45:38;;;;;;;;;;;30.80;91.10;;;;;;1892099;74;20226;-80
2021/07/10 05:48:07;;;;;;;;;;;31.00;91.10;;;;;;1888947;76;20120;-78
2021/07/10 05:50:40;;;;;;;;;;;30.90;90.70;;;;;;1882791;74;20218;-78
2021/07/10 05:53:10;;;;;;;;;;;30.90;90.50;;;;;;1887156;75;20242;-79
2021/07/10 05:55:40;;;;;;;;;;;30.90;90.80;;;;;;1848372;76;20230;-78
2021/07/10 05:58:14;;;;;;;;;;;30.90;90.20;;;;;;1870071;76;20122;-78
2021/07/10 06:00:43;;;;;;;;;;;30.90;90.40;;;;;;1874368;76;20224;-80
2021/07/10 06:03:13;;;;;;;;;;;30.90;89.80;;;;;;1866945;76;20539;-78
2021/07/10 06:05:43;;;;;;;;;;;31.00;90.20;;;;;;1869228;76;20216;-78
2021/07/10 06:08:13;;;;;;;;;;;31.00;89.80;;;;;;1863056;76;20220;-79
2021/07/10 06:10:45;;;;;;;;;;;31.10;90.30;;;;;;1870492;75;20161;-79
2021/07/10 06:13:15;;;;;;;;;;;31.10;90.20;;;;;;1870124;75;20231;-78
2021/07/10 06:15:48;;;;;;;;;;;31.10;90.00;;;;;;1863608;75;20588;-78
2021/07/10 06:18:22;;;;;;;;;;;31.10;89.80;;;;;;1867725;76;20193;-79
2021/07/10 06:20:48;;;;;;;;;;;31.20;88.90;;;;;;1868337;76;20221;-79
2021/07/10 06:23:18;;;;;;;;;;;31.20;88.60;;;;;;1871336;76;20212;-79
2021/07/10 06:25:48;;;;;;;;;;;31.20;90.60;;;;;;1870221;76;20231;-79
2021/07/10 06:28:18;;;;;;;;;;;31.30;89.70;;;;;;1867311;75;20204;-78
2021/07/10 06:30:47;;;;;;;;;;;31.30;90.10;;;;;;1871782;76;20248;-78
2021/07/10 06:33:17;;;;;;;;;;;31.30;89.40;;;;;;1870956;75;20252;-79
2021/07/10 06:35:47;;;;;;;;;;;31.30;88.90;;;;;;1869672;75;20420;-78
2021/07/10 06:38:17;;;;;;;;;;;31.30;89.40;;;;;;1870560;76;20193;-79
2021/07/10 06:40:49;;;;;;;;;;;31.30;89.60;;;;;;1873431;76;20239;-79
2021/07/10 06:43:22;;;;;;;;;;;31.30;88.00;;;;;;1866182;75;20201;-80
2021/07/10 06:45:52;;;;;;;;;;;31.30;87.80;;;;;;1871494;76;20193;-79
2021/07/10 06:48:22;;;;;;;;;;;31.30;88.90;;;;;;1866967;76;20322;-79
2021/07/10 06:50:52;;;;;;;;;;;31.30;89.70;;;;;;1870091;76;20134;-80
2021/07/10 06:53:23;;;;;;;;;;;31.20;88.00;;;;;;1870859;76;20132;-80
2021/07/10 06:55:54;;;;;;;;;;;31.10;88.60;;;;;;1874583;76;20182;-80
2021/07/10 06:58:23;;;;;;;;;;;31.00;88.60;;;;;;1879163;75;20234;-80
2021/07/10 07:00:55;;;;;;;;;;;30.90;89.40;;;;;;1879778;76;20172;-80
2021/07/10 07:03:26;;;;;;;;;;;30.90;88.90;;;;;;1885278;74;20179;-79
2021/07/10 07:05:57;;;;;;;;;;;30.80;88.90;;;;;;1886831;76;20241;-79
2021/07/10 07:08:27;;;;;;;;;;;30.90;88.10;;;;;;1886592;76;20207;-80
2021/07/10 07:10:56;;;;;;;;;;;30.90;89.40;;;;;;1886719;76;20474;-79
2021/07/10 07:13:26;;;;;;;;;;;30.90;88.90;;;;;;1888329;74;20185;-78
2021/07/10 07:15:56;;;;;;;;;;;30.90;86.90;;;;;;1874936;75;20620;-80
2021/07/10 07:18:26;;;;;;;;;;;31.00;86.50;;;;;;1879627;75;20254;-79
2021/07/10 07:20:57;;;;;;;;;;;31.00;87.00;;;;;;1889622;76;20211;-77
2021/07/10 07:23:28;;;;;;;;;;;31.10;87.10;;;;;;1885701;76;20180;-78
2021/07/10 07:25:58;;;;;;;;;;;31.10;87.40;;;;;;1890561;76;20194;-80
2021/07/10 07:28:28;;;;;;;;;;;31.20;87.20;;;;;;1886575;74;20211;-79
2021/07/10 07:30:58;;;;;;;;;;;31.20;88.30;;;;;;1883470;76;20183;-79
2021/07/10 07:33:27;;;;;;;;;;;31.30;86.60;;;;;;1885194;74;20543;-78
2021/07/10 07:35:58;;;;;;;;;;;31.20;86.00;;;;;;1885085;76;20221;-78
2021/07/10 07:38:28;;;;;;;;;;;31.20;88.70;;;;;;1882201;74;20482;-77
2021/07/10 07:40:59;;;;;;;;;;;31.20;89.70;;;;;;1888839;76;20242;-79
2021/07/10 07:43:29;;;;;;;;;;;31.10;90.00;;;;;;1890391;76;20187;-80
2021/07/10 07:45:59;;;;;;;;;;;31.00;90.50;;;;;;1872222;76;20226;-82
2021/07/10 07:48:29;;;;;;;;;;;31.00;91.20;;;;;;1885490;76;20497;-81
2021/07/10 07:51:02;;;;;;;;;;;30.90;91.20;;;;;;1847798;76;20161;-81
2021/07/10 07:53:30;;;;;;;;;;;30.70;91.10;;;;;;1872743;76;20208;-81
2021/07/10 07:56:00;;;;;;;;;;;30.50;91.20;;;;;;1863447;76;20260;-82
2021/07/10 07:58:30;;;;;;;;;;;30.40;91.30;;;;;;1874382;76;20138;-81
2021/07/10 08:00:59;;;;;;;;;;;30.30;91.90;;;;;;1871836;76;20246;-81
2021/07/10 08:03:29;;;;;;;;;;;30.20;91.90;;;;;;1873010;76;20192;-81
2021/07/10 08:05:59;;;;;;;;;;;30.10;91.90;;;;;;1882224;74;20140;-82
2021/07/10 08:08:29;;;;;;;;;;;30.00;91.80;;;;;;1873501;74;20494;-81
2021/07/10 08:10:58;;;;;;;;;;;29.90;91.70;;;;;;1861211;76;20197;-81
2021/07/10 08:13:28;;;;;;;;;;;29.90;91.80;;;;;;1886574;76;20242;-80
2021/07/10 08:15:58;;;;;;;;;;;30.00;92.00;;;;;;1871046;76;20176;-81
2021/07/10 08:18:28;;;;;;;;;;;30.10;92.00;;;;;;1878175;76;20252;-80
2021/07/10 08:21:01;;;;;;;;;;;30.20;92.00;;;;;;1830458;78;20358;-81
2021/07/10 08:23:31;;;;;;;;;;;30.20;92.20;;;;;;1832850;78;20482;-81
2021/07/10 08:26:01;;;;;;;;;;;30.20;92.30;;;;;;1825610;78;20222;-80
2021/07/10 08:28:31;;;;;;;;;;;30.20;92.30;;;;;;1835868;78;20254;-80
2021/07/10 08:31:01;;;;;;;;;;;30.20;91.80;;;;;;1835392;77;20222;-80
2021/07/10 08:33:33;;;;;;;;;;;30.10;91.90;;;;;;1829490;78;20257;-80
2021/07/10 08:36:03;;;;;;;;;;;30.20;91.80;;;;;;1834386;78;20240;-80
2021/07/10 08:38:33;;;;;;;;;;;30.20;92.00;;;;;;1836808;78;20214;-80
2021/07/10 08:41:03;;;;;;;;;;;30.20;92.10;;;;;;1834991;78;20427;-79
2021/07/10 08:43:33;;;;;;;;;;;30.30;92.00;;;;;;1834099;78;21009;-80
2021/07/10 08:46:22;;;;;;;;;;;30.40;91.80;;;;;;1826217;77;20220;-81
2021/07/10 08:48:51;;;;;;;;;;;30.40;91.60;;;;;;1799938;78;20207;-82
2021/07/10 08:51:21;;;;;;;;;;;30.50;91.60;;;;;;1811077;78;20258;-82
2021/07/10 08:54:09;;;;;;;;;;;30.50;91.70;;;;;;1817249;78;20168;-82
2021/07/10 08:56:39;;;;;;;;;;;30.50;91.50;;;;;;1821136;78;20503;-81
2021/07/10 08:59:13;;;;;;;;;;;30.60;91.20;;;;;;1858113;77;20122;-81
2021/07/10 09:01:43;;;;;;;;;;;30.50;91.70;;;;;;1864624;77;20196;-81
2021/07/10 09:04:12;;;;;;;;;;;30.50;92.00;;;;;;1864120;75;20511;-81
2021/07/10 09:06:42;;;;;;;;;;;30.50;92.40;;;;;;1852724;77;20536;-80
2021/07/10 09:09:11;;;;;;;;;;;30.40;92.40;;;;;;1860678;77;20157;-81
2021/07/10 09:11:41;;;;;;;;;;;30.30;92.40;;;;;;1860492;77;20169;-80
2021/07/10 09:14:11;;;;;;;;;;;30.20;92.50;;;;;;1862757;77;20201;-80
2021/07/10 09:16:41;;;;;;;;;;;30.20;92.70;;;;;;1841080;77;20252;-80
2021/07/10 09:19:11;;;;;;;;;;;30.10;92.90;;;;;;1848284;77;20141;-80
2021/07/10 09:21:42;;;;;;;;;;;30.10;93.00;;;;;;1860136;75;20196;-80
2021/07/10 09:24:14;;;;;;;;;;;30.10;92.90;;;;;;1844749;77;20143;-81
2021/07/10 09:26:45;;;;;;;;;;;30.10;92.90;;;;;;1846464;77;20165;-81
2021/07/10 09:29:16;;;;;;;;;;;30.20;92.90;;;;;;1863385;77;20508;-81
2021/07/10 09:31:47;;;;;;;;;;;30.20;93.00;;;;;;1856752;77;20226;-80
2021/07/10 09:34:18;;;;;;;;;;;30.20;93.20;;;;;;1866486;77;20185;-82
2021/07/10 09:36:49;;;;;;;;;;;30.20;93.00;;;;;;1872308;75;20233;-81
2021/07/10 09:39:22;;;;;;;;;;;30.20;93.00;;;;;;1870159;77;20126;-80
2021/07/10 09:41:53;;;;;;;;;;;30.20;92.50;;;;;;1863790;77;20220;-81
2021/07/10 09:44:22;;;;;;;;;;;30.30;91.50;;;;;;1866816;77;20151;-80
2021/07/10 09:46:52;;;;;;;;;;;30.30;91.40;;;;;;1861240;77;20163;-81
2021/07/10 09:49:24;;;;;;;;;;;30.40;90.60;;;;;;1869168;75;20213;-80
2021/07/10 09:51:55;;;;;;;;;;;30.30;89.50;;;;;;1861473;77;20228;-80
2021/07/10 09:54:26;;;;;;;;;;;30.40;89.00;;;;;;1862826;75;20255;-79
2021/07/10 09:56:57;;;;;;;;;;;30.40;89.00;;;;;;1869886;77;20231;-78
2021/07/10 09:59:27;;;;;;;;;;;30.40;89.20;;;;;;1870226;76;20287;-81
2021/07/10 10:01:57;;;;;;;;;;;30.30;89.40;;;;;;1871256;75;20268;-80
2021/07/10 10:04:28;;;;;;;;;;;30.30;90.10;;;;;;1864607;75;20351;-78
2021/07/10 10:06:59;;;;;;;;;;;30.30;90.10;;;;;;1877596;75;20193;-83
2021/07/10 10:09:30;;;;;;;;;;;30.30;90.20;;;;;;1883943;75;20260;-81
2021/07/10 10:12:02;;;;;;;;;;;30.20;90.40;;;;;;1883536;75;20132;-81
2021/07/10 10:14:35;;;;;;;;;;;30.20;90.40;;;;;;1876171;75;20228;-82
2021/07/10 10:17:04;;;;;;;;;;;30.20;90.50;;;;;;1872962;75;20271;-81
2021/07/10 10:19:35;;;;;;;;;;;30.20;90.50;;;;;;1882017;75;20260;-82
2021/07/10 10:22:06;;;;;;;;;;;30.20;90.60;;;;;;1874825;75;20180;-79
2021/07/10 10:24:37;;;;;;;;;;;30.10;90.80;;;;;;1871046;75;20586;-81
2021/07/10 10:27:07;;;;;;;;;;;30.10;90.80;;;;;;1871755;75;20140;-80
2021/07/10 10:29:38;;;;;;;;;;;30.10;91.00;;;;;;1878033;75;20153;-80
2021/07/10 10:32:09;;;;;;;;;;;30.10;91.00;;;;;;1869139;75;20315;-80
2021/07/10 10:34:39;;;;;;;;;;;30.10;91.10;;;;;;1883425;75;20206;-82
2021/07/10 10:37:13;;;;;;;;;;;30.20;91.30;;;;;;1872143;75;20216;-80
2021/07/10 10:39:43;;;;;;;;;;;30.20;91.20;;;;;;1874091;75;20120;-81
2021/07/10 10:42:14;;;;;;;;;;;30.20;91.30;;;;;;1875567;75;20195;-80
2021/07/10 10:44:44;;;;;;;;;;;30.10;91.30;;;;;;1877554;75;20247;-80
2021/07/10 10:47:14;;;;;;;;;;;30.10;91.40;;;;;;1884555;75;20198;-80
2021/07/10 10:49:45;;;;;;;;;;;30.10;91.40;;;;;;1880531;75;20193;-82
2021/07/10 10:52:16;;;;;;;;;;;30.10;91.40;;;;;;1880661;75;20220;-80
2021/07/10 10:54:47;;;;;;;;;;;30.10;91.40;;;;;;1883753;75;20556;-81
2021/07/10 10:57:17;;;;;;;;;;;30.00;91.20;;;;;;1874025;75;20173;-81
2021/07/10 10:59:47;;;;;;;;;;;30.10;91.30;;;;;;1871882;75;20209;-81
2021/07/10 11:02:19;;;;;;;;;;;30.00;90.80;;;;;;1869808;75;20184;-80
2021/07/10 11:04:55;;;;;;;;;;;30.00;90.60;;;;;;1883968;75;20298;-81
2021/07/10 11:07:23;;;;;;;;;;;30.00;90.80;;;;;;1874184;75;20153;-80
2021/07/10 11:09:56;;;;;;;;;;;30.00;90.70;;;;;;1874627;75;20264;-80
2021/07/10 11:12:28;;;;;;;;;;;30.00;90.00;;;;;;1885740;75;20181;-81
2021/07/10 11:14:59;;;;;;;;;;;30.00;89.70;;;;;;1873308;75;20211;-80
2021/07/10 11:17:30;;;;;;;;;;;30.00;90.10;;;;;;1838964;77;20566;-81
2021/07/10 11:20:00;;;;;;;;;;;30.00;89.20;;;;;;1805049;78;20207;-81
2021/07/10 11:22:31;;;;;;;;;;;30.00;89.50;;;;;;1847680;77;20541;-81
2021/07/10 11:25:01;;;;;;;;;;;30.00;89.00;;;;;;1833258;77;20197;-79
2021/07/10 11:27:30;;;;;;;;;;;30.00;89.20;;;;;;1835288;77;20190;-80
2021/07/10 11:30:01;;;;;;;;;;;30.00;89.70;;;;;;1839707;77;20207;-80
2021/07/10 11:32:34;;;;;;;;;;;30.00;89.30;;;;;;1820465;77;20215;-80
2021/07/10 11:35:04;;;;;;;;;;;30.00;89.50;;;;;;1812555;78;20887;-80
2021/07/10 11:37:35;;;;;;;;;;;29.90;89.70;;;;;;1798264;78;20201;-79
2021/07/10 11:40:09;;;;;;;;;;;29.90;89.90;;;;;;1784599;78;20297;-79
2021/07/10 11:42:42;;;;;;;;;;;29.90;90.20;;;;;;1860728;75;20561;-80
2021/07/10 11:45:13;;;;;;;;;;;29.90;90.20;;;;;;1866637;75;20193;-80
2021/07/10 11:47:44;;;;;;;;;;;29.80;90.40;;;;;;1865813;75;21200;-81
2021/07/10 11:50:15;;;;;;;;;;;29.80;90.40;;;;;;1870011;75;20157;-81
2021/07/10 11:52:46;;;;;;;;;;;29.80;90.60;;;;;;1870147;75;20211;-81
2021/07/10 11:55:15;;;;;;;;;;;29.80;90.70;;;;;;1852544;75;20204;-79
2021/07/10 11:57:45;;;;;;;;;;;29.80;90.80;;;;;;1863291;75;20196;-81
2021/07/10 12:00:15;;;;;;;;;;;29.80;90.80;;;;;;1860601;75;20575;-81
2021/07/10 12:02:45;;;;;;;;;;;29.80;90.90;;;;;;1875450;75;20254;-80
2021/07/10 12:05:16;;;;;;;;;;;29.70;91.00;;;;;;1872700;75;20596;-81
2021/07/10 12:07:47;;;;;;;;;;;29.70;91.10;;;;;;1858171;75;20175;-81
2021/07/10 12:10:18;;;;;;;;;;;29.70;91.20;;;;;;1873532;75;20622;-81
2021/07/10 12:12:50;;;;;;;;;;;29.60;91.30;;;;;;1864292;75;20177;-81
2021/07/10 12:15:20;;;;;;;;;;;29.70;91.40;;;;;;1873093;74;20577;-82
2021/07/10 12:17:51;;;;;;;;;;;29.60;91.50;;;;;;1874863;75;20118;-81
2021/07/10 12:20:22;;;;;;;;;;;29.60;91.50;;;;;;1878611;75;20230;-81
2021/07/10 12:22:53;;;;;;;;;;;29.60;91.70;;;;;;1900110;75;20466;-82
2021/07/10 12:25:24;;;;;;;;;;;29.60;91.90;;;;;;1886108;75;20227;-81
2021/07/10 12:27:55;;;;;;;;;;;29.50;92.00;;;;;;1873832;75;20161;-81
2021/07/10 12:30:26;;;;;;;;;;;29.50;92.00;;;;;;1885703;75;20161;-82
2021/07/10 12:32:56;;;;;;;;;;;29.50;92.10;;;;;;1882606;75;20521;-80
2021/07/10 12:35:25;;;;;;;;;;;29.50;92.20;;;;;;1884347;75;20155;-81
2021/07/10 12:37:59;;;;;;;;;;;29.50;92.40;;;;;;1842307;77;20248;-80
2021/07/10 12:40:29;;;;;;;;;;;29.50;92.30;;;;;;1839033;77;20197;-80
2021/07/10 12:42:59;;;;;;;;;;;29.50;92.50;;;;;;1813206;79;20270;-80
2021/07/10 12:45:30;;;;;;;;;;;29.40;92.50;;;;;;1842826;77;20138;-81
2021/07/10 12:48:10;;;;;;;;;;;29.40;92.60;;;;;;1845641;77;20209;-82
2021/07/10 12:50:36;;;;;;;;;;;29.30;92.60;;;;;;1847026;77;20177;-80
2021/07/10 12:53:11;;;;;;;;;;;29.30;92.70;;;;;;1846931;77;20263;-78
2021/07/10 12:55:49;;;;;;;;;;;29.30;92.70;;;;;;1850603;77;20173;-79
2021/07/10 12:58:13;;;;;;;;;;;29.40;92.70;;;;;;1849235;77;20232;-79
2021/07/10 13:00:43;;;;;;;;;;;29.30;92.80;;;;;;1843674;77;20183;-80
2021/07/10 13:03:18;;;;;;;;;;;29.40;92.80;;;;;;1843627;77;20286;-81
2021/07/10 13:05:44;;;;;;;;;;;29.30;92.80;;;;;;1852360;77;20146;-81
2021/07/10 13:08:15;;;;;;;;;;;29.40;92.80;;;;;;1854964;77;20155;-81
2021/07/10 13:10:46;;;;;;;;;;;29.40;92.90;;;;;;1850193;77;20161;-81
2021/07/10 13:13:18;;;;;;;;;;;29.40;92.90;;;;;;1850584;77;20460;-81
2021/07/10 13:15:49;;;;;;;;;;;29.30;92.80;;;;;;1851686;77;20499;-80
2021/07/10 13:18:20;;;;;;;;;;;29.30;92.90;;;;;;1851188;77;20124;-92
2021/07/10 13:20:52;;;;;;;;;;;29.30;93.00;;;;;;1853910;77;20130;-90
2021/07/10 13:23:23;;;;;;;;;;;29.30;92.90;;;;;;1852090;77;20187;-92
2021/07/10 13:25:53;;;;;;;;;;;29.30;93.00;;;;;;1855316;77;20212;-92
2021/07/10 13:28:24;;;;;;;;;;;29.30;93.00;;;;;;1850988;77;20156;-90
2021/07/10 13:30:55;;;;;;;;;;;29.30;93.10;;;;;;1851666;77;20244;-89
2021/07/10 13:33:26;;;;;;;;;;;29.30;93.10;;;;;;1855944;77;20168;-90
2021/07/10 13:35:58;;;;;;;;;;;29.30;93.10;;;;;;1850005;77;20198;-91
2021/07/10 13:38:27;;;;;;;;;;;29.30;93.20;;;;;;1841508;77;20131;-91
2021/07/10 13:40:57;;;;;;;;;;;29.30;93.30;;;;;;1847618;77;20315;-89
2021/07/10 13:43:30;;;;;;;;;;;29.30;93.40;;;;;;1855755;76;20226;-92
2021/07/10 13:46:11;;;;;;;;;;;29.20;93.40;;;;;;1801189;76;20245;-91
2021/07/10 13:48:43;;;;;;;;;;;29.30;93.40;;;;;;1860025;76;20176;-89
2021/07/10 13:51:24;;;;;;;;;;;29.30;93.50;;;;;;1853792;76;20182;-88
2021/07/10 13:53:54;;;;;;;;;;;29.30;93.60;;;;;;1857938;76;20149;-89
2021/07/10 13:56:25;;;;;;;;;;;29.30;93.50;;;;;;1863382;76;20258;-90
2021/07/10 13:59:00;;;;;;;;;;;29.20;93.60;;;;;;1857383;76;20186;-91
2021/07/10 14:01:27;;;;;;;;;;;29.20;93.60;;;;;;1859081;76;20204;-90
2021/07/10 14:04:23;;;;;;;;;;;29.20;93.80;;;;;;1857279;76;20163;-91
2021/07/10 14:06:49;;;;;;;;;;;29.20;93.70;;;;;;1858940;76;20265;-92
2021/07/10 14:09:19;;;;;;;;;;;29.20;93.80;;;;;;1856874;76;20237;-91
2021/07/10 14:11:49;;;;;;;;;;;29.20;93.80;;;;;;1847720;76;20194;-92
2021/07/10 14:14:21;;;;;;;;;;;29.10;93.80;;;;;;1874760;76;20157;-91
2021/07/10 14:16:50;;;;;;;;;;;29.10;93.90;;;;;;1846393;76;20187;-89
2021/07/10 14:19:21;;;;;;;;;;;29.10;94.00;;;;;;1815272;78;20255;-92
2021/07/10 14:21:51;;;;;;;;;;;29.10;94.20;;;;;;1839545;76;20181;-91
2021/07/10 14:24:21;;;;;;;;;;;29.10;94.00;;;;;;1823087;78;20165;-90
2021/07/10 14:26:51;;;;;;;;;;;29.10;94.20;;;;;;1808760;78;20252;-91
2021/07/10 14:29:20;;;;;;;;;;;29.10;94.10;;;;;;1821175;78;20161;-89
2021/07/10 14:31:51;;;;;;;;;;;29.10;94.10;;;;;;1846935;76;20183;-90
2021/07/10 14:34:21;;;;;;;;;;;29.00;94.20;;;;;;1817452;78;20210;-90
2021/07/10 14:36:50;;;;;;;;;;;29.00;94.10;;;;;;1814914;78;20227;-89